sensor_id;sensor_type;location;lat;lon;timestamp;pressure;altitude;pressure_sealevel;temperature;humidity
63399;BME280;49533;-34.520;150.798;2023-03-14T00:01:21;100871.22;;;20.06;80.93
63399;BME280;49533;-34.520;150.798;2023-03-14T00:03:47;100866.88;;;20.05;80.73
63399;BME280;49533;-34.520;150.798;2023-03-14T00:06:14;100864.84;;;20.02;81.16
63399;BME280;49533;-34.520;150.798;2023-03-14T00:08:41;100875.75;;;19.94;81.20
63399;BME280;49533;-34.520;150.798;2023-03-14T00:11:09;100870.22;;;19.94;81.15
63399;BME280;49533;-34.520;150.798;2023-03-14T00:13:37;100878.91;;;19.96;80.80
63399;BME280;49533;-34.520;150.798;2023-03-14T00:16:04;100867.75;;;19.89;81.06
63399;BME280;49533;-34.520;150.798;2023-03-14T00:18:32;100865.78;;;19.90;81.01
63399;BME280;49533;-34.520;150.798;2023-03-14T00:20:59;100868.84;;;19.85;81.28
63399;BME280;49533;-34.520;150.798;2023-03-14T00:23:26;100865.28;;;19.84;80.82
63399;BME280;49533;-34.520;150.798;2023-03-14T00:25:53;100863.81;;;19.90;80.45
63399;BME280;49533;-34.520;150.798;2023-03-14T00:28:19;100866.94;;;19.89;80.91
63399;BME280;49533;-34.520;150.798;2023-03-14T00:30:46;100861.69;;;19.84;80.85
63399;BME280;49533;-34.520;150.798;2023-03-14T00:33:12;100861.41;;;19.89;80.36
63399;BME280;49533;-34.520;150.798;2023-03-14T00:35:39;100862.25;;;19.89;80.52
63399;BME280;49533;-34.520;150.798;2023-03-14T00:38:05;100847.84;;;19.80;81.03
63399;BME280;49533;-34.520;150.798;2023-03-14T00:40:31;100856.84;;;19.77;81.45
63399;BME280;49533;-34.520;150.798;2023-03-14T00:42:58;100857.03;;;19.68;81.59
63399;BME280;49533;-34.520;150.798;2023-03-14T00:45:25;100844.44;;;19.67;81.35
63399;BME280;49533;-34.520;150.798;2023-03-14T00:47:51;100850.56;;;19.76;81.07
63399;BME280;49533;-34.520;150.798;2023-03-14T00:50:17;100851.50;;;19.84;81.26
63399;BME280;49533;-34.520;150.798;2023-03-14T00:52:44;100849.59;;;19.88;80.64
63399;BME280;49533;-34.520;150.798;2023-03-14T00:55:12;100853.09;;;19.85;81.05
63399;BME280;49533;-34.520;150.798;2023-03-14T00:57:38;100846.34;;;19.83;81.22
63399;BME280;49533;-34.520;150.798;2023-03-14T01:00:04;100842.84;;;19.86;81.41
63399;BME280;49533;-34.520;150.798;2023-03-14T01:02:34;100842.13;;;19.89;81.58
63399;BME280;49533;-34.520;150.798;2023-03-14T01:05:00;100834.06;;;20.19;80.32
63399;BME280;49533;-34.520;150.798;2023-03-14T01:07:26;100830.00;;;20.13;80.42
63399;BME280;49533;-34.520;150.798;2023-03-14T01:09:53;100819.19;;;20.04;81.22
63399;BME280;49533;-34.520;150.798;2023-03-14T01:12:19;100806.91;;;20.02;81.42
63399;BME280;49533;-34.520;150.798;2023-03-14T01:14:45;100807.22;;;19.96;81.91
63399;BME280;49533;-34.520;150.798;2023-03-14T01:17:12;100813.25;;;20.02;81.74
63399;BME280;49533;-34.520;150.798;2023-03-14T01:19:38;100816.75;;;20.41;81.18
63399;BME280;49533;-34.520;150.798;2023-03-14T01:22:05;100809.16;;;20.58;79.37
63399;BME280;49533;-34.520;150.798;2023-03-14T01:24:32;100820.19;;;20.58;79.67
63399;BME280;49533;-34.520;150.798;2023-03-14T01:26:58;100814.53;;;20.51;80.65
63399;BME280;49533;-34.520;150.798;2023-03-14T01:29:25;100813.81;;;20.54;80.01
63399;BME280;49533;-34.520;150.798;2023-03-14T01:31:51;100813.53;;;20.39;80.99
63399;BME280;49533;-34.520;150.798;2023-03-14T01:34:18;100811.25;;;20.45;80.70
63399;BME280;49533;-34.520;150.798;2023-03-14T01:36:44;100815.56;;;20.42;80.49
63399;BME280;49533;-34.520;150.798;2023-03-14T01:39:11;100806.34;;;20.35;80.77
63399;BME280;49533;-34.520;150.798;2023-03-14T01:41:38;100806.97;;;20.25;81.18
63399;BME280;49533;-34.520;150.798;2023-03-14T01:44:09;69154.97;;;-147.25;100.00
63399;BME280;49533;-34.520;150.798;2023-03-14T01:47:52;100789.75;;;23.98;70.05
63399;BME280;49533;-34.520;150.798;2023-03-14T01:50:19;69154.97;;;-147.25;100.00
63399;BME280;49533;-34.520;150.798;2023-03-14T01:55:33;100788.69;;;23.40;70.43
63399;BME280;49533;-34.520;150.798;2023-03-14T01:58:03;100772.41;;;24.47;67.75
63399;BME280;49533;-34.520;150.798;2023-03-14T02:00:31;100736.59;;;25.25;63.27
63399;BME280;49533;-34.520;150.798;2023-03-14T02:03:02;100696.97;;;24.13;66.20
63399;BME280;49533;-34.520;150.798;2023-03-14T02:05:35;100778.66;;;24.01;68.22
63399;BME280;49533;-34.520;150.798;2023-03-14T02:08:07;100771.94;;;24.13;67.95
63399;BME280;49533;-34.520;150.798;2023-03-14T02:10:40;100680.94;;;23.38;69.04
63399;BME280;49533;-34.520;150.798;2023-03-14T02:13:08;100699.97;;;23.43;69.15
63399;BME280;49533;-34.520;150.798;2023-03-14T02:15:35;100621.19;;;22.61;70.63
63399;BME280;49533;-34.520;150.798;2023-03-14T02:18:04;100668.00;;;22.84;71.09
63399;BME280;49533;-34.520;150.798;2023-03-14T02:20:52;100760.97;;;23.40;70.75
63399;BME280;49533;-34.520;150.798;2023-03-14T02:26:20;100637.88;;;22.71;70.35
63399;BME280;49533;-34.520;150.798;2023-03-14T02:28:50;100756.22;;;23.40;70.21
63399;BME280;49533;-34.520;150.798;2023-03-14T02:31:21;100743.44;;;23.18;70.91
63399;BME280;49533;-34.520;150.798;2023-03-14T02:33:49;100656.09;;;22.79;70.41
63399;BME280;49533;-34.520;150.798;2023-03-14T02:36:19;100726.75;;;23.04;71.42
63399;BME280;49533;-34.520;150.798;2023-03-14T02:38:53;100696.28;;;23.11;71.31
63399;BME280;49533;-34.520;150.798;2023-03-14T02:41:22;100609.59;;;22.37;72.85
63399;BME280;49533;-34.520;150.798;2023-03-14T02:43:49;100568.53;;;22.57;70.12
63399;BME280;49533;-34.520;150.798;2023-03-14T02:46:19;100733.31;;;23.58;71.10
63399;BME280;49533;-34.520;150.798;2023-03-14T02:48:53;100655.09;;;23.13;71.15
63399;BME280;49533;-34.520;150.798;2023-03-14T02:51:24;100587.59;;;22.69;71.25
63399;BME280;49533;-34.520;150.798;2023-03-14T02:53:52;100591.25;;;22.84;70.23
63399;BME280;49533;-34.520;150.798;2023-03-14T02:56:19;100591.25;;;22.88;70.78
63399;BME280;49533;-34.520;150.798;2023-03-14T02:58:46;100670.66;;;23.32;70.61
63399;BME280;49533;-34.520;150.798;2023-03-14T03:01:13;100713.47;;;23.49;71.72
63399;BME280;49533;-34.520;150.798;2023-03-14T03:03:41;100568.81;;;22.34;72.38
63399;BME280;49533;-34.520;150.798;2023-03-14T03:06:08;100669.06;;;23.34;71.30
63399;BME280;49533;-34.520;150.798;2023-03-14T03:08:35;100665.84;;;23.25;71.54
63399;BME280;49533;-34.520;150.798;2023-03-14T03:11:04;100706.47;;;23.87;70.08
63399;BME280;49533;-34.520;150.798;2023-03-14T03:13:32;100622.31;;;23.36;70.20
63399;BME280;49533;-34.520;150.798;2023-03-14T03:15:59;100663.63;;;23.70;68.54
63399;BME280;49533;-34.520;150.798;2023-03-14T03:18:26;100698.59;;;24.03;68.07
63399;BME280;49533;-34.520;150.798;2023-03-14T03:20:53;100547.41;;;23.08;68.94
63399;BME280;49533;-34.520;150.798;2023-03-14T03:23:20;100696.97;;;23.92;68.76
63399;BME280;49533;-34.520;150.798;2023-03-14T03:25:50;100702.13;;;23.97;68.72
63399;BME280;49533;-34.520;150.798;2023-03-14T03:28:18;100686.28;;;24.08;67.02
63399;BME280;49533;-34.520;150.798;2023-03-14T03:30:45;100661.31;;;23.94;66.67
63399;BME280;49533;-34.520;150.798;2023-03-14T03:33:12;100604.13;;;23.42;66.85
63399;BME280;49533;-34.520;150.798;2023-03-14T03:35:45;100541.00;;;22.89;68.50
63399;BME280;49533;-34.520;150.798;2023-03-14T03:38:13;100666.03;;;23.79;68.34
63399;BME280;49533;-34.520;150.798;2023-03-14T03:40:42;100690.66;;;24.13;67.81
63399;BME280;49533;-34.520;150.798;2023-03-14T03:43:09;100624.41;;;23.79;67.91
63399;BME280;49533;-34.520;150.798;2023-03-14T03:45:36;100558.16;;;23.41;66.94
63399;BME280;49533;-34.520;150.798;2023-03-14T03:48:03;100685.88;;;24.31;66.37
63399;BME280;49533;-34.520;150.798;2023-03-14T03:50:30;100670.00;;;23.92;68.44
63399;BME280;49533;-34.520;150.798;2023-03-14T03:52:58;100494.66;;;22.83;69.55
63399;BME280;49533;-34.520;150.798;2023-03-14T03:55:25;100678.75;;;24.30;67.73
63399;BME280;49533;-34.520;150.798;2023-03-14T03:57:54;100558.19;;;23.49;66.08
63399;BME280;49533;-34.520;150.798;2023-03-14T04:00:21;100470.56;;;22.94;65.91
63399;BME280;49533;-34.520;150.798;2023-03-14T04:02:48;100660.50;;;24.33;65.76
63399;BME280;49533;-34.520;150.798;2023-03-14T04:05:15;100450.41;;;22.97;65.50
63399;BME280;49533;-34.520;150.798;2023-03-14T04:07:42;100498.34;;;23.19;66.27
63399;BME280;49533;-34.520;150.798;2023-03-14T04:10:10;100593.13;;;23.89;65.42
63399;BME280;49533;-34.520;150.798;2023-03-14T04:12:37;100474.19;;;23.16;66.04
63399;BME280;49533;-34.520;150.798;2023-03-14T04:15:04;100648.19;;;24.34;65.55
63399;BME280;49533;-34.520;150.798;2023-03-14T04:17:32;100667.63;;;24.34;65.20
63399;BME280;49533;-34.520;150.798;2023-03-14T04:19:59;100614.50;;;24.17;65.21
63399;BME280;49533;-34.520;150.798;2023-03-14T04:22:26;100634.31;;;24.37;65.58
63399;BME280;49533;-34.520;150.798;2023-03-14T04:24:53;100610.53;;;24.18;65.74
63399;BME280;49533;-34.520;150.798;2023-03-14T04:27:20;100602.59;;;24.35;64.92
63399;BME280;49533;-34.520;150.798;2023-03-14T04:29:47;100576.81;;;24.27;64.98
63399;BME280;49533;-34.520;150.798;2023-03-14T04:32:14;100633.09;;;24.78;64.17
63399;BME280;49533;-34.520;150.798;2023-03-14T04:34:41;100635.03;;;24.84;63.83
63399;BME280;49533;-34.520;150.798;2023-03-14T04:37:08;100627.47;;;24.95;63.62
63399;BME280;49533;-34.520;150.798;2023-03-14T04:39:36;100627.47;;;24.95;63.91
63399;BME280;49533;-34.520;150.798;2023-03-14T04:42:03;100544.28;;;24.31;64.31
63399;BME280;49533;-34.520;150.798;2023-03-14T04:44:30;100583.41;;;24.87;63.87
63399;BME280;49533;-34.520;150.798;2023-03-14T04:46:57;100600.44;;;25.03;63.74
63399;BME280;49533;-34.520;150.798;2023-03-14T04:49:25;100626.19;;;25.14;63.46
63399;BME280;49533;-34.520;150.798;2023-03-14T04:51:52;100623.41;;;25.18;63.54
63399;BME280;49533;-34.520;150.798;2023-03-14T04:54:19;100556.84;;;24.82;63.60
63399;BME280;49533;-34.520;150.798;2023-03-14T04:56:46;100618.25;;;25.24;63.12
63399;BME280;49533;-34.520;150.798;2023-03-14T04:59:13;100531.88;;;24.75;63.47
63399;BME280;49533;-34.520;150.798;2023-03-14T05:01:40;100591.25;;;25.13;63.20
63399;BME280;49533;-34.520;150.798;2023-03-14T05:04:07;100590.44;;;25.13;63.52
63399;BME280;49533;-34.520;150.798;2023-03-14T05:06:34;100606.22;;;25.37;62.58
63399;BME280;49533;-34.520;150.798;2023-03-14T05:09:03;100503.41;;;24.46;63.57
63399;BME280;49533;-34.520;150.798;2023-03-14T05:11:31;100606.25;;;25.30;62.79
63399;BME280;49533;-34.520;150.798;2023-03-14T05:13:58;100614.22;;;25.32;62.84
63399;BME280;49533;-34.520;150.798;2023-03-14T05:16:26;100611.00;;;25.37;62.91
63399;BME280;49533;-34.520;150.798;2023-03-14T05:18:53;100546.84;;;24.99;62.77
63399;BME280;49533;-34.520;150.798;2023-03-14T05:21:20;100603.84;;;25.36;62.44
63399;BME280;49533;-34.520;150.798;2023-03-14T05:23:47;100596.28;;;25.40;62.41
63399;BME280;49533;-34.520;150.798;2023-03-14T05:26:14;100603.06;;;25.39;62.74
63399;BME280;49533;-34.520;150.798;2023-03-14T05:28:43;100479.97;;;24.54;62.62
63399;BME280;49533;-34.520;150.798;2023-03-14T05:31:10;100568.28;;;24.99;62.67
63399;BME280;49533;-34.520;150.798;2023-03-14T05:33:37;100608.56;;;25.46;62.11
63399;BME280;49533;-34.520;150.798;2023-03-14T05:36:04;100532.19;;;24.91;62.07
63399;BME280;49533;-34.520;150.798;2023-03-14T05:38:32;100609.38;;;25.43;62.21
63399;BME280;49533;-34.520;150.798;2023-03-14T05:40:59;100468.41;;;24.66;61.87
63399;BME280;49533;-34.520;150.798;2023-03-14T05:43:26;100584.03;;;25.30;61.74
63399;BME280;49533;-34.520;150.798;2023-03-14T05:45:53;100614.97;;;25.36;62.38
63399;BME280;49533;-34.520;150.798;2023-03-14T05:48:20;100612.53;;;25.45;62.21
63399;BME280;49533;-34.520;150.798;2023-03-14T05:50:53;100611.72;;;25.52;61.89
63399;BME280;49533;-34.520;150.798;2023-03-14T05:53:21;100578.50;;;25.27;61.62
63399;BME280;49533;-34.520;150.798;2023-03-14T05:55:52;100590.41;;;25.27;61.92
63399;BME280;49533;-34.520;150.798;2023-03-14T05:58:19;100548.84;;;24.95;62.12
63399;BME280;49533;-34.520;150.798;2023-03-14T06:00:47;100573.75;;;25.24;61.76
63399;BME280;49533;-34.520;150.798;2023-03-14T06:03:14;100486.66;;;24.71;61.69
63399;BME280;49533;-34.520;150.798;2023-03-14T06:05:41;100599.09;;;25.33;61.94
63399;BME280;49533;-34.520;150.798;2023-03-14T06:08:08;100498.44;;;24.93;61.03
63399;BME280;49533;-34.520;150.798;2023-03-14T06:10:36;100616.38;;;25.66;61.09
63399;BME280;49533;-34.520;150.798;2023-03-14T06:13:04;100613.22;;;25.67;61.60
63399;BME280;49533;-34.520;150.798;2023-03-14T06:15:31;100548.38;;;25.07;61.44
63399;BME280;49533;-34.520;150.798;2023-03-14T06:17:59;100612.06;;;25.57;61.27
63399;BME280;49533;-34.520;150.798;2023-03-14T06:20:26;100601.25;;;25.67;61.41
63399;BME280;49533;-34.520;150.798;2023-03-14T06:22:53;100524.53;;;25.10;61.05
63399;BME280;49533;-34.520;150.798;2023-03-14T06:25:20;100541.22;;;25.13;61.66
63399;BME280;49533;-34.520;150.798;2023-03-14T06:27:47;100608.06;;;25.58;61.23
63399;BME280;49533;-34.520;150.798;2023-03-14T06:30:14;100601.28;;;25.63;61.03
63399;BME280;49533;-34.520;150.798;2023-03-14T06:32:41;100403.91;;;24.23;61.36
63399;BME280;49533;-34.520;150.798;2023-03-14T06:35:09;100606.84;;;25.63;61.01
63399;BME280;49533;-34.520;150.798;2023-03-14T06:37:36;100415.31;;;24.46;61.29
63399;BME280;49533;-34.520;150.798;2023-03-14T06:40:03;100555.78;;;25.39;60.97
63399;BME280;49533;-34.520;150.798;2023-03-14T06:42:32;100534.84;;;25.16;60.94
63399;BME280;49533;-34.520;150.798;2023-03-14T06:44:59;100456.47;;;24.73;61.27
63399;BME280;49533;-34.520;150.798;2023-03-14T06:47:26;100484.91;;;24.99;61.21
63399;BME280;49533;-34.520;150.798;2023-03-14T06:49:53;100604.44;;;25.69;61.20
63399;BME280;49533;-34.520;150.798;2023-03-14T06:52:20;100606.03;;;25.70;61.17
63399;BME280;49533;-34.520;150.798;2023-03-14T06:54:47;100601.28;;;25.63;60.86
63399;BME280;49533;-34.520;150.798;2023-03-14T06:57:14;100610.00;;;25.69;61.06
63399;BME280;49533;-34.520;150.798;2023-03-14T06:59:41;100602.03;;;25.71;60.90
63399;BME280;49533;-34.520;150.798;2023-03-14T07:02:11;100604.81;;;25.71;60.71
63399;BME280;49533;-34.520;150.798;2023-03-14T07:04:39;100478.22;;;24.89;61.08
63399;BME280;49533;-34.520;150.798;2023-03-14T07:07:06;100510.66;;;25.06;60.68
63399;BME280;49533;-34.520;150.798;2023-03-14T07:09:34;100558.56;;;25.39;60.99
63399;BME280;49533;-34.520;150.798;2023-03-14T07:12:01;100606.03;;;25.70;60.70
63399;BME280;49533;-34.520;150.798;2023-03-14T07:14:30;100514.69;;;24.94;61.26
63399;BME280;49533;-34.520;150.798;2023-03-14T07:16:57;100608.81;;;25.66;60.44
63399;BME280;49533;-34.520;150.798;2023-03-14T07:19:24;100572.81;;;25.45;60.95
63399;BME280;49533;-34.520;150.798;2023-03-14T07:21:52;100611.16;;;25.71;60.42
63399;BME280;49533;-34.520;150.798;2023-03-14T07:24:19;100593.41;;;25.54;60.93
63399;BME280;49533;-34.520;150.798;2023-03-14T07:26:46;100605.59;;;25.71;60.73
63399;BME280;49533;-34.520;150.798;2023-03-14T07:29:13;100601.25;;;25.67;60.51
63399;BME280;49533;-34.520;150.798;2023-03-14T07:31:40;100598.47;;;25.70;60.33
63399;BME280;49533;-34.520;150.798;2023-03-14T07:34:07;100580.69;;;25.53;60.67
63399;BME280;49533;-34.520;150.798;2023-03-14T07:36:34;100598.47;;;25.67;60.54
63399;BME280;49533;-34.520;150.798;2023-03-14T07:39:01;100604.81;;;25.71;60.37
63399;BME280;49533;-34.520;150.798;2023-03-14T07:41:31;100603.66;;;25.68;60.33
63399;BME280;49533;-34.520;150.798;2023-03-14T07:43:59;100596.94;;;25.58;60.05
63399;BME280;49533;-34.520;150.798;2023-03-14T07:46:26;100563.34;;;25.35;60.46
63399;BME280;49533;-34.520;150.798;2023-03-14T07:48:53;100610.78;;;25.69;60.42
63399;BME280;49533;-34.520;150.798;2023-03-14T07:51:20;100575.59;;;25.41;60.43
63399;BME280;49533;-34.520;150.798;2023-03-14T07:53:47;100589.38;;;25.59;60.56
63399;BME280;49533;-34.520;150.798;2023-03-14T07:56:14;100556.63;;;25.25;60.81
63399;BME280;49533;-34.520;150.798;2023-03-14T07:58:42;100600.19;;;25.50;60.25
63399;BME280;49533;-34.520;150.798;2023-03-14T08:01:09;100489.72;;;24.87;60.21
63399;BME280;49533;-34.520;150.798;2023-03-14T08:03:36;100632.25;;;25.69;60.47
63399;BME280;49533;-34.520;150.798;2023-03-14T08:06:03;100525.00;;;25.01;60.56
63399;BME280;49533;-34.520;150.798;2023-03-14T08:08:30;100568.19;;;25.24;60.14
63399;BME280;49533;-34.520;150.798;2023-03-14T08:11:03;100625.94;;;25.65;60.64
63399;BME280;49533;-34.520;150.798;2023-03-14T08:13:31;100618.72;;;25.71;59.92
63399;BME280;49533;-34.520;150.798;2023-03-14T08:15:58;100602.16;;;25.53;60.33
63399;BME280;49533;-34.520;150.798;2023-03-14T08:18:26;100580.03;;;25.35;60.29
63399;BME280;49533;-34.520;150.798;2023-03-14T08:20:53;100556.63;;;25.25;60.51
63399;BME280;49533;-34.520;150.798;2023-03-14T08:23:20;100569.69;;;25.39;60.45
63399;BME280;49533;-34.520;150.798;2023-03-14T08:25:49;100426.59;;;24.03;62.03
63399;BME280;49533;-34.520;150.798;2023-03-14T08:28:17;100549.22;;;24.97;61.50
63399;BME280;49533;-34.520;150.798;2023-03-14T08:30:45;100616.16;;;25.42;61.66
63399;BME280;49533;-34.520;150.798;2023-03-14T08:33:12;100612.16;;;25.43;61.95
63399;BME280;49533;-34.520;150.798;2023-03-14T08:35:39;100615.34;;;25.38;62.29
63399;BME280;49533;-34.520;150.798;2023-03-14T08:38:06;100451.88;;;24.23;62.47
63399;BME280;49533;-34.520;150.798;2023-03-14T08:40:33;100523.19;;;24.66;62.32
63399;BME280;49533;-34.520;150.798;2023-03-14T08:43:00;100593.59;;;25.15;62.13
63399;BME280;49533;-34.520;150.798;2023-03-14T08:45:27;100620.16;;;25.34;61.71
63399;BME280;49533;-34.520;150.798;2023-03-14T08:47:55;100600.75;;;25.23;61.41
63399;BME280;49533;-34.520;150.798;2023-03-14T08:50:22;100614.97;;;25.36;61.32
63399;BME280;49533;-34.520;150.798;2023-03-14T08:52:50;100613.38;;;25.38;60.76
63399;BME280;49533;-34.520;150.798;2023-03-14T08:55:17;100609.03;;;25.30;60.76
63399;BME280;49533;-34.520;150.798;2023-03-14T08:57:45;100436.03;;;24.20;60.71
63399;BME280;49533;-34.520;150.798;2023-03-14T09:00:13;100613.38;;;25.38;60.58
63399;BME280;49533;-34.520;150.798;2023-03-14T09:02:42;100618.94;;;25.42;61.13
63399;BME280;49533;-34.520;150.798;2023-03-14T09:05:10;100544.47;;;24.94;60.72
63399;BME280;49533;-34.520;150.798;2023-03-14T09:07:38;100550.81;;;24.98;60.51
63399;BME280;49533;-34.520;150.798;2023-03-14T09:10:07;100602.28;;;25.35;60.21
63399;BME280;49533;-34.520;150.798;2023-03-14T09:12:34;100531.81;;;24.82;60.70
63399;BME280;49533;-34.520;150.798;2023-03-14T09:15:01;100502.53;;;24.67;60.14
63399;BME280;49533;-34.520;150.798;2023-03-14T09:17:29;100614.94;;;25.43;60.35
63399;BME280;49533;-34.520;150.798;2023-03-14T09:19:56;100610.97;;;25.44;60.48
63399;BME280;49533;-34.520;150.798;2023-03-14T09:22:23;100618.13;;;25.42;60.67
63399;BME280;49533;-34.520;150.798;2023-03-14T09:24:50;100620.53;;;25.40;60.27
63399;BME280;49533;-34.520;150.798;2023-03-14T09:27:17;100522.72;;;24.74;60.17
63399;BME280;49533;-34.520;150.798;2023-03-14T09:29:44;100565.88;;;25.04;60.26
63399;BME280;49533;-34.520;150.798;2023-03-14T09:32:11;100622.88;;;25.41;60.79
63399;BME280;49533;-34.520;150.798;2023-03-14T09:34:38;100626.09;;;25.40;60.26
63399;BME280;49533;-34.520;150.798;2023-03-14T09:37:05;100622.09;;;25.41;60.35
63399;BME280;49533;-34.520;150.798;2023-03-14T09:39:32;100635.22;;;25.40;60.20
63399;BME280;49533;-34.520;150.798;2023-03-14T09:42:02;100562.72;;;24.95;60.34
63399;BME280;49533;-34.520;150.798;2023-03-14T09:44:33;100563.56;;;24.85;60.67
63399;BME280;49533;-34.520;150.798;2023-03-14T09:47:06;100634.03;;;25.37;60.34
63399;BME280;49533;-34.520;150.798;2023-03-14T09:49:39;100648.34;;;25.36;60.18
63399;BME280;49533;-34.520;150.798;2023-03-14T09:52:22;100629.78;;;25.19;60.19
63399;BME280;49533;-34.520;150.798;2023-03-14T09:54:54;100604.00;;;25.04;60.38
63399;BME280;49533;-34.520;150.798;2023-03-14T09:57:25;100631.75;;;25.18;60.52
63399;BME280;49533;-34.520;150.798;2023-03-14T09:59:56;100649.16;;;25.33;60.33
63399;BME280;49533;-34.520;150.798;2023-03-14T10:02:31;100589.75;;;24.91;60.65
63399;BME280;49533;-34.520;150.798;2023-03-14T10:05:00;100651.97;;;25.29;60.08
63399;BME280;49533;-34.520;150.798;2023-03-14T10:07:29;100631.00;;;25.03;60.39
63399;BME280;49533;-34.520;150.798;2023-03-14T10:09:57;100644.41;;;25.30;60.35
63399;BME280;49533;-34.520;150.798;2023-03-14T10:12:34;100543.06;;;24.57;60.12
63399;BME280;49533;-34.520;150.798;2023-03-14T10:15:06;100578.69;;;24.80;60.34
63399;BME280;49533;-34.520;150.798;2023-03-14T10:17:42;100589.75;;;24.91;60.46
63399;BME280;49533;-34.520;150.798;2023-03-14T10:20:27;100595.38;;;24.77;60.19
63399;BME280;49533;-34.520;150.798;2023-03-14T10:22:59;100666.69;;;25.23;60.13
63399;BME280;49533;-34.520;150.798;2023-03-14T10:25:29;100638.94;;;25.05;59.96
63399;BME280;49533;-34.520;150.798;2023-03-14T10:27:57;100596.97;;;24.78;60.35
63399;BME280;49533;-34.520;150.798;2023-03-14T10:30:40;100615.94;;;24.93;60.11
63399;BME280;49533;-34.520;150.798;2023-03-14T10:33:24;100656.38;;;25.20;59.83
63399;BME280;49533;-34.520;150.798;2023-03-14T10:35:59;100660.75;;;25.17;60.00
63399;BME280;49533;-34.520;150.798;2023-03-14T10:38:29;100577.16;;;24.68;59.88
63399;BME280;49533;-34.520;150.798;2023-03-14T10:40:56;100665.53;;;25.16;60.15
63399;BME280;49533;-34.520;150.798;2023-03-14T10:43:31;100662.31;;;25.14;59.99
63399;BME280;49533;-34.520;150.798;2023-03-14T10:46:09;100621.56;;;24.76;59.76
63399;BME280;49533;-34.520;150.798;2023-03-14T10:48:38;100652.47;;;24.99;60.20
63399;BME280;49533;-34.520;150.798;2023-03-14T10:51:19;100669.09;;;25.13;59.74
63399;BME280;49533;-34.520;150.798;2023-03-14T10:54:00;100661.16;;;25.12;60.00
63399;BME280;49533;-34.520;150.798;2023-03-14T10:56:34;100589.44;;;24.71;59.75
63399;BME280;49533;-34.520;150.798;2023-03-14T10:59:03;100594.22;;;24.70;59.74
63399;BME280;49533;-34.520;150.798;2023-03-14T11:01:41;100588.22;;;24.72;59.52
63399;BME280;49533;-34.520;150.798;2023-03-14T11:04:37;100625.06;;;24.94;60.00
63399;BME280;49533;-34.520;150.798;2023-03-14T11:07:24;100551.41;;;24.43;60.03
63399;BME280;49533;-34.520;150.798;2023-03-14T11:15:49;100649.25;;;25.04;59.90
63399;BME280;49533;-34.520;150.798;2023-03-14T11:18:34;100647.28;;;25.01;59.69
63399;BME280;49533;-34.520;150.798;2023-03-14T11:21:21;100586.69;;;24.60;59.67
63399;BME280;49533;-34.520;150.798;2023-03-14T11:27:05;100570.44;;;24.55;59.94
63399;BME280;49533;-34.520;150.798;2023-03-14T11:29:41;100576.81;;;24.52;59.82
63399;BME280;49533;-34.520;150.798;2023-03-14T11:32:23;100626.31;;;24.86;60.11
63399;BME280;49533;-34.520;150.798;2023-03-14T11:34:52;100633.81;;;24.96;59.54
63399;BME280;49533;-34.520;150.798;2023-03-14T11:37:32;100541.91;;;24.37;59.83
63399;BME280;49533;-34.520;150.798;2023-03-14T11:40:06;100549.81;;;24.38;59.74
63399;BME280;49533;-34.520;150.798;2023-03-14T11:42:36;100552.59;;;24.49;59.89
63399;BME280;49533;-34.520;150.798;2023-03-14T11:45:05;100593.78;;;24.76;59.98
63399;BME280;49533;-34.520;150.798;2023-03-14T11:47:41;100621.91;;;24.92;59.57
63399;BME280;49533;-34.520;150.798;2023-03-14T11:50:19;100545.47;;;24.30;59.52
63399;BME280;49533;-34.520;150.798;2023-03-14T11:53:04;100523.69;;;24.21;59.50
63399;BME280;49533;-34.520;150.798;2023-03-14T11:55:35;100620.31;;;24.87;59.86
63399;BME280;49533;-34.520;150.798;2023-03-14T11:58:14;100511.00;;;24.20;59.66
63399;BME280;49533;-34.520;150.798;2023-03-14T12:00:44;100515.34;;;24.28;59.93
63399;BME280;49533;-34.520;150.798;2023-03-14T12:06:09;100580.66;;;24.83;59.47
63399;BME280;49533;-34.520;150.798;2023-03-14T12:08:49;100546.66;;;24.50;59.79
63399;BME280;49533;-34.520;150.798;2023-03-14T12:11:33;100571.53;;;24.83;59.77
63399;BME280;49533;-34.520;150.798;2023-03-14T12:14:03;100474.91;;;24.20;59.77
63399;BME280;49533;-34.520;150.798;2023-03-14T12:16:46;100518.88;;;24.50;59.74
63399;BME280;49533;-34.520;150.798;2023-03-14T12:19:26;100541.44;;;24.63;59.49
63399;BME280;49533;-34.520;150.798;2023-03-14T12:22:30;100550.91;;;24.77;59.54
63399;BME280;49533;-34.520;150.798;2023-03-14T12:24:54;100487.56;;;24.32;59.70
63399;BME280;49533;-34.520;150.798;2023-03-14T12:27:44;100497.06;;;24.45;59.51
63399;BME280;49533;-34.520;150.798;2023-03-14T12:30:23;100548.56;;;24.75;59.43
63399;BME280;49533;-34.520;150.798;2023-03-14T12:33:18;100536.63;;;24.74;59.50
63399;BME280;49533;-34.520;150.798;2023-03-14T12:35:48;100529.50;;;24.73;59.72
63399;BME280;49533;-34.520;150.798;2023-03-14T12:38:51;100531.06;;;24.74;59.69
63399;BME280;49533;-34.520;150.798;2023-03-14T12:41:26;100451.09;;;24.23;59.79
63399;BME280;49533;-34.520;150.798;2023-03-14T12:43:54;100447.19;;;24.17;59.79
63399;BME280;49533;-34.520;150.798;2023-03-14T12:46:24;100502.19;;;24.58;59.81
63399;BME280;49533;-34.520;150.798;2023-03-14T12:49:05;100516.03;;;24.68;59.75
63399;BME280;49533;-34.520;150.798;2023-03-14T12:51:39;100495.09;;;24.49;59.43